Time;durP1;ratioP1;P1;durP2;ratioP2;P2;SDS_P1;SDS_P2;PMS_P1;PMS_P2;Temp;Humidity;BMP_temperature;BMP_pressure;BME280_temperature;BME280_humidity;BME280_pressure;Samples;Min_cycle;Max_cycle;Signal;HPM_P1;HPM_P2
2021/08/18 00:00:50;;;;;;;8.68;4.10;;;;;;;14.51;70.63;100250.41;1623775;85;25898;-80
2021/08/18 00:03:17;;;;;;;8.23;4.17;;;;;;;14.48;70.69;100250.84;1658055;84;25791;-82
2021/08/18 00:05:44;;;;;;;12.55;4.60;;;;;;;14.47;70.65;100251.06;1618839;86;25836;-80
2021/08/18 00:08:13;;;;;;;11.40;4.45;;;;;;;14.43;70.61;100253.39;1634034;84;28277;-80
2021/08/18 00:10:42;;;;;;;6.50;4.17;;;;;;;14.45;70.70;100251.30;1612527;84;25905;-79
2021/08/18 00:13:11;;;;;;;7.90;4.10;;;;;;;14.42;70.64;100251.72;1667110;84;25812;-80
2021/08/18 00:15:40;;;;;;;5.62;3.95;;;;;;;14.39;70.63;100248.66;1615471;85;26612;-81
2021/08/18 00:18:07;;;;;;;7.05;4.10;;;;;;;14.37;70.75;100255.58;1662681;84;25816;-80
2021/08/18 00:20:35;;;;;;;10.10;4.58;;;;;;;14.35;70.81;100252.83;1659312;85;27460;-80
2021/08/18 00:23:02;;;;;;;11.40;4.03;;;;;;;14.31;70.81;100252.94;1674900;84;25929;-80
2021/08/18 00:25:29;;;;;;;7.28;3.55;;;;;;;14.30;70.94;100253.48;1658977;84;26015;-80
2021/08/18 00:27:56;;;;;;;6.87;3.85;;;;;;;14.28;70.91;100254.71;1611742;84;25931;-80
2021/08/18 00:30:23;;;;;;;8.60;4.17;;;;;;;14.27;71.13;100258.44;1623205;85;25968;-80
2021/08/18 00:32:51;;;;;;;7.20;4.17;;;;;;;14.23;71.03;100258.06;1666004;84;27474;-80
2021/08/18 00:35:18;;;;;;;9.98;4.25;;;;;;;14.21;71.06;100251.23;1645778;85;25863;-78
2021/08/18 00:37:46;;;;;;;10.72;4.47;;;;;;;14.17;71.15;100247.33;1625904;85;26704;-80
2021/08/18 00:40:15;;;;;;;8.70;4.22;;;;;;;14.15;71.22;100253.45;1645307;85;26438;-78
2021/08/18 00:42:43;;;;;;;6.40;3.65;;;;;;;14.14;71.32;100249.10;1688451;83;25772;-78
2021/08/18 00:45:11;;;;;;;10.53;4.65;;;;;;;14.11;71.17;100253.08;1662619;84;28377;-79
2021/08/18 00:47:48;;;;;;;10.03;4.90;;;;;;;14.11;71.22;100257.64;1689396;84;26412;-78
2021/08/18 00:50:21;;;;;;;9.98;4.40;;;;;;;14.09;71.24;100255.68;1641476;84;25848;-78
2021/08/18 00:52:48;;;;;;;8.70;4.35;;;;;;;14.06;71.25;100253.41;1688183;83;25850;-80
2021/08/18 00:55:19;;;;;;;13.53;5.10;;;;;;;14.04;71.36;100260.88;1663725;84;25846;-79
2021/08/18 00:57:46;;;;;;;9.05;4.45;;;;;;;14.01;71.41;100256.75;1643341;84;27728;-80
2021/08/18 01:00:16;;;;;;;10.48;4.58;;;;;;;13.98;71.39;100253.68;1642455;84;25353;-81
2021/08/18 01:02:46;;;;;;;8.35;5.00;;;;;;;13.95;71.51;100260.31;1685752;84;25588;-81
2021/08/18 01:05:23;;;;;;;10.38;4.90;;;;;;;13.94;71.46;100265.42;1688779;84;25790;-80
2021/08/18 01:07:52;;;;;;;9.18;4.70;;;;;;;13.92;71.47;100270.20;1635380;86;26063;-80
2021/08/18 01:10:24;;;;;;;12.13;5.05;;;;;;;13.90;71.55;100268.20;1684591;83;28141;-80
2021/08/18 01:12:53;;;;;;;9.18;4.35;;;;;;;13.90;71.60;100266.86;1653712;86;25881;-80
2021/08/18 01:15:23;;;;;;;9.83;5.10;;;;;;;13.89;71.82;100270.09;1625142;85;25828;-80
2021/08/18 01:17:54;;;;;;;8.15;4.25;;;;;;;13.88;71.96;100264.91;1604268;85;25856;-79
2021/08/18 01:20:26;;;;;;;11.22;4.42;;;;;;;13.87;72.03;100257.37;1660275;85;25942;-78
2021/08/18 01:22:53;;;;;;;7.28;4.62;;;;;;;13.90;72.10;100254.75;1678442;85;27481;-80
2021/08/18 01:25:20;;;;;;;11.83;4.72;;;;;;;13.90;72.06;100257.44;1632779;86;25658;-82
2021/08/18 01:27:55;;;;;;;9.90;5.00;;;;;;;13.90;72.02;100258.27;1664561;85;26566;-80
2021/08/18 01:30:24;;;;;;;12.13;4.20;;;;;;;13.93;71.95;100257.02;1636086;86;25856;-80
2021/08/18 01:32:59;;;;;;;10.70;4.12;;;;;;;13.93;72.06;100261.89;1655286;84;25777;-79
2021/08/18 01:35:31;;;;;;;8.78;4.45;;;;;;;13.92;72.06;100260.77;1661222;84;27639;-79
2021/08/18 01:38:02;;;;;;;9.80;4.33;;;;;;;13.93;72.01;100259.71;1655621;85;25331;-79
2021/08/18 01:40:29;;;;;;;7.60;4.10;;;;;;;13.96;72.02;100270.58;1601193;88;25792;-80
2021/08/18 01:42:57;;;;;;;11.78;5.05;;;;;;;13.96;71.96;100266.02;1673170;85;25826;-78
2021/08/18 01:45:28;;;;;;;8.60;4.17;;;;;;;13.99;71.98;100265.57;1625989;85;26007;-79
2021/08/18 01:47:56;;;;;;;9.33;4.55;;;;;;;14.00;71.90;100248.90;1623090;84;27530;-84
2021/08/18 01:50:25;;;;;;;7.47;4.55;;;;;;;14.01;71.79;100248.67;1631608;84;25855;-78
2021/08/18 01:52:53;;;;;;;9.75;4.60;;;;;;;14.02;71.87;100250.85;1674917;84;25322;-79
2021/08/18 01:55:23;;;;;;;7.30;4.40;;;;;;;14.02;71.73;100248.99;1683949;84;25873;-80
2021/08/18 01:57:50;;;;;;;10.23;5.47;;;;;;;14.03;71.69;100249.28;1647556;85;26027;-82
2021/08/18 02:00:18;;;;;;;11.08;5.12;;;;;;;14.01;71.54;100245.18;1632573;85;27597;-79
2021/08/18 02:02:45;;;;;;;11.03;5.12;;;;;;;14.00;71.63;100247.04;1676593;84;25941;-80
2021/08/18 02:05:13;;;;;;;12.80;5.10;;;;;;;14.01;71.49;100246.52;1665240;85;25938;-80
2021/08/18 02:07:40;;;;;;;9.68;5.53;;;;;;;13.99;71.50;100252.11;1646258;84;25866;-79
2021/08/18 02:10:16;;;;;;;10.15;4.75;;;;;;;13.98;71.54;100250.47;1628880;85;25377;-80
2021/08/18 02:12:43;;;;;;;9.63;5.05;;;;;;;13.97;71.51;100252.02;1672987;83;27576;-81
2021/08/18 02:15:15;;;;;;;6.78;4.28;;;;;;;13.97;71.59;100247.46;1651289;85;25908;-81
2021/08/18 02:17:42;;;;;;;14.53;4.85;;;;;;;13.99;71.65;100239.16;1639732;84;25853;-79
2021/08/18 02:20:15;;;;;;;9.68;5.53;;;;;;;13.99;71.62;100239.98;1626711;85;25995;-80
2021/08/18 02:22:42;;;;;;;11.50;5.80;;;;;;;14.02;71.63;100241.42;1671796;84;25353;-81
2021/08/18 02:25:10;;;;;;;8.43;4.97;;;;;;;14.04;71.56;100237.48;1629617;84;27185;-80
2021/08/18 02:27:38;;;;;;;9.68;5.83;;;;;;;14.06;71.53;100235.91;1639839;84;26564;-80
2021/08/18 02:30:07;;;;;;;12.50;5.45;;;;;;;14.07;71.47;100235.67;1650506;85;26040;-79
2021/08/18 02:32:34;;;;;;;11.15;5.53;;;;;;;14.10;71.40;100232.56;1674665;84;25879;-79
2021/08/18 02:35:02;;;;;;;14.53;6.92;;;;;;;14.10;71.34;100229.87;1652184;85;25812;-80
2021/08/18 02:37:29;;;;;;;8.53;5.28;;;;;;;14.12;71.39;100230.98;1634563;84;27382;-78
2021/08/18 02:39:56;;;;;;;9.85;5.60;;;;;;;14.13;71.27;100228.61;1669735;84;25833;-80
2021/08/18 02:42:24;;;;;;;11.83;6.45;;;;;;;14.15;71.26;100231.91;1642481;85;25840;-84
2021/08/18 02:44:51;;;;;;;11.50;6.22;;;;;;;14.14;71.12;100228.90;1658592;85;26623;-80
2021/08/18 02:47:18;;;;;;;10.15;5.80;;;;;;;14.16;71.23;100230.33;1625714;85;25344;-78
2021/08/18 02:49:45;;;;;;;17.73;6.70;;;;;;;14.18;71.18;100231.48;1589579;86;28195;-79
2021/08/18 02:52:13;;;;;;;10.98;6.20;;;;;;;14.18;71.20;100228.25;1620028;86;25815;-79
2021/08/18 02:54:40;;;;;;;9.20;5.97;;;;;;;14.20;71.20;100230.74;1687899;84;26566;-80
2021/08/18 02:57:07;;;;;;;9.88;5.67;;;;;;;14.22;71.21;100232.70;1645634;84;25886;-78
2021/08/18 02:59:34;;;;;;;10.72;6.28;;;;;;;14.22;71.13;100234.84;1636157;85;25902;-79
2021/08/18 03:02:01;;;;;;;13.22;6.08;;;;;;;14.22;71.17;100236.19;1607790;86;27506;-80
2021/08/18 03:04:28;;;;;;;11.60;6.30;;;;;;;14.21;71.14;100227.82;1674710;84;25829;-79
2021/08/18 03:06:55;;;;;;;11.43;6.58;;;;;;;14.21;71.15;100229.68;1623296;85;26221;-81
2021/08/18 03:09:23;;;;;;;12.82;7.90;;;;;;;14.20;71.20;100226.70;1646705;85;26506;-79
2021/08/18 03:11:51;;;;;;;14.78;6.92;;;;;;;14.20;71.22;100218.08;1662468;84;26549;-79
2021/08/18 03:14:20;;;;;;;11.97;6.40;;;;;;;14.19;71.20;100223.17;1685671;83;28168;-78
2021/08/18 03:16:48;;;;;;;10.13;6.42;;;;;;;14.17;71.15;100225.78;1638929;84;26567;-78
2021/08/18 03:19:15;;;;;;;12.25;6.62;;;;;;;14.14;71.23;100225.69;1649230;85;26024;-81
2021/08/18 03:21:42;;;;;;;11.40;6.95;;;;;;;14.16;71.24;100228.16;1662477;84;26239;-80
2021/08/18 03:24:11;;;;;;;12.68;6.70;;;;;;;14.15;71.36;100234.60;1655197;84;25889;-78
2021/08/18 03:26:40;;;;;;;18.60;8.73;;;;;;;14.13;71.31;100231.30;1632234;86;28025;-78
2021/08/18 03:29:07;;;;;;;10.38;6.85;;;;;;;14.13;71.46;100230.79;1646106;85;26080;-80
2021/08/18 03:31:34;;;;;;;12.50;7.70;;;;;;;14.15;71.45;100229.22;1662129;84;25828;-79
2021/08/18 03:34:01;;;;;;;12.68;6.17;;;;;;;14.15;71.44;100239.48;1685105;84;26513;-81
2021/08/18 03:36:28;;;;;;;9.88;6.65;;;;;;;14.15;71.56;100233.26;1639580;84;26670;-80
2021/08/18 03:38:56;;;;;;;12.00;7.58;;;;;;;14.16;71.56;100240.28;1655268;84;28324;-78
2021/08/18 03:41:23;;;;;;;12.58;7.10;;;;;;;14.18;71.62;100237.67;1663852;83;25885;-80
2021/08/18 03:43:50;;;;;;;10.08;6.28;;;;;;;14.19;71.67;100233.95;1663040;84;26537;-80
2021/08/18 03:46:17;;;;;;;13.05;6.80;;;;;;;14.21;71.68;100235.91;1631908;84;26483;-79
2021/08/18 03:48:44;;;;;;;12.60;7.70;;;;;;;14.23;71.69;100232.47;1647741;84;25908;-79
2021/08/18 03:51:11;;;;;;;13.20;7.62;;;;;;;14.25;71.66;100235.77;1589189;86;27548;-83
2021/08/18 03:53:38;;;;;;;17.37;8.53;;;;;;;14.28;71.67;100231.81;1666785;84;25745;-80
2021/08/18 03:56:05;;;;;;;15.72;8.40;;;;;;;14.28;71.64;100236.69;1615460;87;25970;-78
2021/08/18 03:58:32;;;;;;;14.63;8.18;;;;;;;14.29;71.64;100234.31;1640723;84;26390;-80
2021/08/18 04:00:59;;;;;;;14.63;8.13;;;;;;;14.31;71.72;100239.47;1650863;85;25330;-80
2021/08/18 04:03:26;;;;;;;15.38;7.65;;;;;;;14.32;71.74;100238.44;1670525;85;27578;-80
2021/08/18 04:05:53;;;;;;;12.65;7.55;;;;;;;14.32;71.74;100242.48;1613099;85;25924;-80
2021/08/18 04:08:20;;;;;;;15.53;8.13;;;;;;;14.32;71.70;100246.01;1646298;84;25991;-81
2021/08/18 04:10:47;;;;;;;13.55;7.67;;;;;;;14.34;71.69;100247.13;1650006;85;25781;-79
2021/08/18 04:13:14;;;;;;;12.70;7.47;;;;;;;14.35;71.68;100253.63;1644656;85;26077;-79
2021/08/18 04:15:42;;;;;;;11.83;6.90;;;;;;;14.34;71.69;100252.00;1627944;85;27524;-78
2021/08/18 04:18:11;;;;;;;13.15;7.28;;;;;;;14.34;71.75;100249.82;1621871;85;26568;-79
2021/08/18 04:20:38;;;;;;;13.18;7.55;;;;;;;14.34;71.78;100254.70;1649501;85;25856;-78
2021/08/18 04:23:06;;;;;;;13.60;7.72;;;;;;;14.35;71.92;100261.72;1669215;84;26586;-80
2021/08/18 04:25:33;;;;;;;15.23;8.20;;;;;;;14.36;71.99;100258.51;1609521;85;25653;-79
2021/08/18 04:28:01;;;;;;;18.45;9.30;;;;;;;14.39;72.01;100268.86;1623743;85;28297;-80
2021/08/18 04:30:28;;;;;;;13.75;7.70;;;;;;;14.42;72.10;100276.48;1625874;85;25778;-80
2021/08/18 04:32:55;;;;;;;12.70;8.13;;;;;;;14.42;72.29;100274.63;1672884;84;26567;-79
2021/08/18 04:35:22;;;;;;;13.58;7.97;;;;;;;14.44;72.21;100285.17;1619970;85;25813;-79
2021/08/18 04:37:49;;;;;;;15.50;8.15;;;;;;;14.47;72.29;100283.41;1631819;86;25867;-80
2021/08/18 04:40:16;;;;;;;14.38;8.53;;;;;;;14.49;72.28;100282.66;1662633;85;27583;-80
2021/08/18 04:42:48;;;;;;;18.25;8.40;;;;;;;14.53;72.38;100291.95;1663681;85;25598;-80
2021/08/18 04:45:16;;;;;;;14.65;7.83;;;;;;;14.54;72.35;100286.33;1601791;85;25937;-79
2021/08/18 04:47:43;;;;;;;11.83;7.47;;;;;;;14.57;72.47;100294.51;1655650;85;26493;-78
2021/08/18 04:50:13;;;;;;;10.43;7.45;;;;;;;14.58;72.39;100299.67;1637054;86;26331;-80
2021/08/18 04:52:40;;;;;;;13.78;8.63;;;;;;;14.60;72.69;100295.43;1662678;85;28255;-79
2021/08/18 04:55:08;;;;;;;12.20;7.12;;;;;;;14.62;72.54;100309.00;1629557;85;25812;-80
2021/08/18 04:57:35;;;;;;;14.33;7.65;;;;;;;14.67;72.51;100311.84;1645581;85;25914;-79
2021/08/18 05:00:05;;;;;;;16.70;8.85;;;;;;;14.67;72.49;100307.80;1652931;85;26208;-78
2021/08/18 05:02:34;;;;;;;13.80;8.78;;;;;;;14.69;72.52;100309.74;1659116;85;26544;-79
2021/08/18 05:05:03;;;;;;;11.35;7.70;;;;;;;14.71;72.40;100310.89;1631665;85;27251;-80
2021/08/18 05:07:30;;;;;;;13.78;8.03;;;;;;;14.74;72.31;100311.78;1611836;85;26655;-81
2021/08/18 05:09:57;;;;;;;17.98;8.60;;;;;;;14.77;72.38;100313.22;1650998;85;25947;-81
2021/08/18 05:12:24;;;;;;;14.10;8.48;;;;;;;14.80;72.40;100316.84;1638558;85;26502;-80
2021/08/18 05:14:52;;;;;;;15.13;8.18;;;;;;;14.80;72.28;100320.33;1603889;85;25813;-80
2021/08/18 05:17:19;;;;;;;14.60;8.25;;;;;;;14.85;72.16;100322.37;1644806;85;27553;-80
2021/08/18 05:19:46;;;;;;;14.87;8.20;;;;;;;14.87;72.21;100322.45;1607753;85;26608;-79
2021/08/18 05:22:13;;;;;;;14.50;8.48;;;;;;;14.90;72.14;100325.23;1644664;84;25878;-80
2021/08/18 05:24:40;;;;;;;14.47;8.35;;;;;;;14.91;72.00;100330.41;1616626;85;25941;-80
2021/08/18 05:27:07;;;;;;;15.13;8.28;;;;;;;14.92;71.98;100323.14;1641431;85;25781;-79
2021/08/18 05:29:34;;;;;;;13.28;7.87;;;;;;;14.94;71.99;100325.09;1650437;85;27658;-79
2021/08/18 05:32:01;;;;;;;13.15;8.28;;;;;;;15.00;72.07;100316.11;1667148;85;25915;-79
2021/08/18 05:34:29;;;;;;;20.27;8.63;;;;;;;15.09;72.03;100330.45;1602095;85;25911;-81
2021/08/18 05:36:56;;;;;;;14.45;7.75;;;;;;;15.25;72.22;100331.21;1644223;85;26083;-78
2021/08/18 05:39:23;;;;;;;15.05;8.30;;;;;;;15.42;71.98;100333.62;1655708;85;25868;-81
2021/08/18 05:41:50;;;;;;;15.00;8.73;;;;;;;15.53;71.61;100338.83;1674573;85;27615;-83
2021/08/18 05:44:17;;;;;;;13.43;8.65;;;;;;;15.63;71.27;100334.27;1624674;85;26000;-78
2021/08/18 05:46:44;;;;;;;15.43;8.53;;;;;;;15.75;71.13;100325.70;1639508;85;25884;-79
2021/08/18 05:49:19;;;;;;;15.50;8.30;;;;;;;15.84;70.84;100324.34;1649226;85;25911;-80
2021/08/18 05:51:40;;;;;;;16.62;8.28;;;;;;;15.94;70.83;100327.31;1673142;85;25740;-79
2021/08/18 05:54:07;;;;;;;14.55;8.40;;;;;;;16.07;70.55;100319.87;1647756;85;28329;-78
2021/08/18 05:56:34;;;;;;;11.88;7.70;;;;;;;16.23;69.75;100327.03;1650724;85;25861;-78
2021/08/18 05:59:01;;;;;;;12.68;7.90;;;;;;;16.37;69.98;100332.53;1626998;85;25865;-80
2021/08/18 06:01:28;;;;;;;16.90;9.10;;;;;;;16.51;69.89;100313.75;1648019;86;26514;-79
2021/08/18 06:03:55;;;;;;;17.52;9.23;;;;;;;16.68;69.87;100317.42;1669613;85;25854;-79
2021/08/18 06:06:22;;;;;;;17.50;8.55;;;;;;;16.85;69.38;100325.95;1624468;85;27573;-80
2021/08/18 06:08:49;;;;;;;16.50;8.43;;;;;;;16.90;68.67;100319.31;1642888;85;25370;-80
2021/08/18 06:11:16;;;;;;;16.57;8.20;;;;;;;16.91;68.06;100316.09;1620904;85;25849;-81
2021/08/18 06:13:43;;;;;;;14.98;8.43;;;;;;;16.92;68.08;100321.78;1672976;85;25791;-80
2021/08/18 06:16:10;;;;;;;15.63;9.23;;;;;;;16.89;67.67;100321.71;1627126;85;25986;-81
2021/08/18 06:18:37;;;;;;;14.93;8.83;;;;;;;16.84;67.61;100318.91;1642838;85;27548;-79
2021/08/18 06:21:04;;;;;;;13.40;8.18;;;;;;;16.81;67.29;100327.48;1619957;85;25648;-79
2021/08/18 06:23:32;;;;;;;13.85;8.00;;;;;;;16.77;67.75;100329.00;1665852;85;25847;-80
2021/08/18 06:25:59;;;;;;;13.38;8.28;;;;;;;16.75;67.56;100327.06;1645241;84;25799;-80
2021/08/18 06:28:26;;;;;;;16.48;8.43;;;;;;;16.73;67.74;100330.53;1636940;85;25811;-80
2021/08/18 06:30:53;;;;;;;11.30;7.72;;;;;;;16.71;67.52;100331.30;1631416;85;28313;-80
2021/08/18 06:33:21;;;;;;;15.93;8.55;;;;;;;16.70;67.69;100327.48;1632231;85;25971;-79
2021/08/18 06:35:48;;;;;;;14.83;8.03;;;;;;;16.70;67.70;100336.39;1641326;84;26044;-79
2021/08/18 06:38:15;;;;;;;14.47;8.75;;;;;;;16.73;67.57;100341.87;1649234;84;26063;-80
2021/08/18 06:40:42;;;;;;;14.28;9.08;;;;;;;16.75;67.53;100343.81;1645923;84;25800;-80
2021/08/18 06:43:09;;;;;;;13.70;8.13;;;;;;;16.77;67.40;100332.23;1681531;84;27445;-80
2021/08/18 06:45:37;;;;;;;14.33;8.63;;;;;;;16.81;67.50;100337.47;1638564;84;26630;-80
2021/08/18 06:48:05;;;;;;;19.40;8.93;;;;;;;16.88;67.47;100333.61;1654135;84;25858;-79
2021/08/18 06:50:32;;;;;;;17.73;9.15;;;;;;;16.98;67.34;100335.20;1630723;84;25737;-80
2021/08/18 06:52:59;;;;;;;12.07;8.08;;;;;;;17.11;67.44;100326.02;1680009;84;25800;-80
2021/08/18 06:55:26;;;;;;;15.35;8.25;;;;;;;17.23;67.05;100328.73;1649609;84;28342;-79
2021/08/18 06:57:53;;;;;;;13.25;7.83;;;;;;;17.34;66.02;100328.70;1650629;84;25931;-80
2021/08/18 07:00:20;;;;;;;13.25;8.53;;;;;;;17.42;65.82;100322.12;1636251;84;26670;-79
2021/08/18 07:02:51;;;;;;;13.20;8.13;;;;;;;17.49;65.47;100331.75;1676383;84;26425;-79
2021/08/18 07:05:20;;;;;;;16.97;8.78;;;;;;;17.46;65.59;100332.77;1646394;84;26746;-79
2021/08/18 07:07:47;;;;;;;17.55;8.40;;;;;;;17.44;65.11;100333.01;1654691;84;28192;-79
2021/08/18 07:10:16;;;;;;;14.33;8.33;;;;;;;17.58;65.63;100331.71;1662049;84;26099;-79
2021/08/18 07:12:45;;;;;;;17.35;8.13;;;;;;;17.70;66.12;100328.98;1658373;84;25756;-80
2021/08/18 07:15:12;;;;;;;15.45;8.33;;;;;;;17.88;65.82;100332.86;1661643;84;26685;-79
2021/08/18 07:17:40;;;;;;;16.77;7.87;;;;;;;17.95;65.38;100330.84;1674758;84;26293;-80
2021/08/18 07:20:08;;;;;;;12.50;7.72;;;;;;;17.93;65.02;100328.91;1646547;84;28272;-79
2021/08/18 07:22:35;;;;;;;14.93;7.45;;;;;;;17.90;64.94;100333.45;1697835;83;25975;-79
2021/08/18 07:25:03;;;;;;;16.25;9.13;;;;;;;18.00;65.46;100335.02;1650061;84;25817;-79
2021/08/18 07:27:30;;;;;;;15.00;8.45;;;;;;;17.99;64.16;100333.36;1656738;84;26629;-80
2021/08/18 07:29:58;;;;;;;14.63;8.00;;;;;;;17.98;63.92;100333.09;1643339;84;26012;-80
2021/08/18 07:32:25;;;;;;;13.78;7.72;;;;;;;17.99;64.47;100333.36;1698444;84;28148;-80
2021/08/18 07:34:52;;;;;;;11.83;8.65;;;;;;;17.97;64.22;100336.84;1674606;84;26017;-80
2021/08/18 07:37:19;;;;;;;16.55;7.67;;;;;;;17.99;64.27;100339.30;1672351;84;25826;-80
2021/08/18 07:39:46;;;;;;;12.68;7.42;;;;;;;18.08;64.02;100342.77;1650649;84;26439;-80
2021/08/18 07:42:13;;;;;;;15.45;7.83;;;;;;;18.13;63.57;100344.23;1672202;84;25916;-80
2021/08/18 07:44:41;;;;;;;13.95;7.37;;;;;;;18.07;62.71;100333.52;1674469;84;27330;-80
2021/08/18 07:47:09;;;;;;;9.70;7.08;;;;;;;18.04;62.59;100334.00;1674583;84;25777;-79
2021/08/18 07:49:36;;;;;;;15.48;8.58;;;;;;;18.05;62.70;100335.10;1646107;84;25846;-79
2021/08/18 07:52:05;;;;;;;10.98;6.83;;;;;;;18.13;62.50;100333.91;1698313;84;26470;-79
2021/08/18 07:54:33;;;;;;;12.60;6.40;;;;;;;18.30;62.94;100327.47;1650891;84;25950;-80
2021/08/18 07:57:01;;;;;;;11.38;6.87;;;;;;;18.46;62.04;100332.11;1674534;84;27451;-79
2021/08/18 07:59:28;;;;;;;12.78;7.17;;;;;;;18.61;61.85;100331.55;1650923;84;25931;-79
2021/08/18 08:01:55;;;;;;;12.98;7.30;;;;;;;18.64;62.34;100335.14;1674411;84;25981;-79
2021/08/18 08:04:22;;;;;;;14.35;6.58;;;;;;;18.64;61.29;100330.24;1674313;84;26141;-79
2021/08/18 08:06:49;;;;;;;14.85;7.72;;;;;;;18.66;62.12;100338.96;1668658;84;25692;-80
2021/08/18 08:09:16;;;;;;;12.98;7.28;;;;;;;18.71;62.23;100333.07;1649243;84;28181;-80
2021/08/18 08:11:43;;;;;;;10.60;7.33;;;;;;;18.71;62.15;100343.92;1674581;84;26003;-80
2021/08/18 08:14:11;;;;;;;13.25;7.47;;;;;;;18.68;61.15;100349.03;1629687;85;25958;-80
2021/08/18 08:16:38;;;;;;;12.45;7.20;;;;;;;18.56;61.30;100357.78;1636241;85;26298;-79
2021/08/18 08:19:05;;;;;;;11.43;7.20;;;;;;;18.43;60.70;100351.55;1616760;85;25824;-80
2021/08/18 08:21:32;;;;;;;14.45;7.08;;;;;;;18.33;61.48;100353.25;1637176;85;27559;-80
2021/08/18 08:24:00;;;;;;;14.53;7.47;;;;;;;18.36;61.77;100352.25;1621636;85;26487;-81
2021/08/18 08:26:27;;;;;;;11.38;6.75;;;;;;;18.54;62.23;100346.35;1636923;85;25863;-80
2021/08/18 08:28:54;;;;;;;11.33;6.67;;;;;;;18.73;62.09;100341.81;1624434;84;25955;-81
2021/08/18 08:31:21;;;;;;;11.70;6.67;;;;;;;18.85;60.46;100353.41;1679965;84;25873;-80
2021/08/18 08:33:48;;;;;;;10.90;7.05;;;;;;;18.93;60.26;100346.73;1677570;84;27584;-80
2021/08/18 08:36:15;;;;;;;11.18;6.62;;;;;;;18.97;59.96;100338.37;1648776;84;25922;-80
2021/08/18 08:38:42;;;;;;;10.32;6.25;;;;;;;19.03;59.94;100338.20;1655594;85;26652;-80
2021/08/18 08:41:09;;;;;;;8.78;6.35;;;;;;;19.14;60.00;100334.58;1641503;86;25969;-80
2021/08/18 08:43:40;;;;;;;8.13;6.05;;;;;;;19.26;60.15;100331.78;1642148;86;25810;-80
2021/08/18 08:46:07;;;;;;;12.47;6.62;;;;;;;19.35;59.98;100330.31;1618828;86;28195;-80
2021/08/18 08:48:34;;;;;;;11.38;6.33;;;;;;;19.47;59.77;100336.45;1619093;86;26154;-80
2021/08/18 08:51:02;;;;;;;9.98;6.08;;;;;;;19.51;59.34;100336.23;1664013;85;25815;-80
2021/08/18 08:53:29;;;;;;;13.25;6.40;;;;;;;19.47;58.13;100336.98;1641811;86;26491;-79
2021/08/18 08:55:56;;;;;;;11.22;6.45;;;;;;;19.46;58.72;100334.79;1619669;86;26441;-79
2021/08/18 08:58:24;;;;;;;10.53;6.75;;;;;;;19.52;58.68;100335.70;1641413;86;27588;-80
2021/08/18 09:00:51;;;;;;;13.18;7.40;;;;;;;19.61;58.81;100332.84;1664018;86;25906;-79
2021/08/18 09:03:23;;;;;;;14.63;7.47;;;;;;;19.59;58.78;100333.07;1641689;86;25956;-79
2021/08/18 09:05:52;;;;;;;11.57;7.22;;;;;;;19.52;58.82;100328.37;1620440;86;26603;-79
2021/08/18 09:08:22;;;;;;;9.55;6.40;;;;;;;19.59;59.25;100324.13;1617224;86;26441;-80
2021/08/18 09:11:13;;;;;;;10.35;6.37;;;;;;;19.70;59.44;100322.63;1663857;85;28035;-79
2021/08/18 09:13:53;;;;;;;9.13;6.20;;;;;;;19.71;58.08;100327.53;1631774;86;25815;-80
2021/08/18 09:16:37;;;;;;;11.00;7.17;;;;;;;19.74;58.68;100335.98;1614278;86;26640;-80
2021/08/18 09:19:04;;;;;;;9.15;6.50;;;;;;;19.80;58.22;100329.53;1641016;86;25889;-79
2021/08/18 09:21:37;;;;;;;11.00;6.35;;;;;;;19.85;58.07;100336.40;1660679;86;25824;-78
2021/08/18 09:24:22;;;;;;;16.75;7.35;;;;;;;19.86;57.87;100323.11;1617062;85;27519;-79
2021/08/18 09:26:56;;;;;;;10.98;6.35;;;;;;;19.82;57.58;100317.06;1661624;86;25978;-80
2021/08/18 09:29:41;;;;;;;9.48;6.30;;;;;;;19.78;57.26;100316.73;1619378;86;26644;-79
2021/08/18 09:32:33;;;;;;;12.53;6.12;;;;;;;19.89;57.25;100319.03;1662707;84;25889;-79
2021/08/18 09:35:10;;;;;;;11.83;6.05;;;;;;;19.97;57.33;100320.77;1653070;86;25807;-79
2021/08/18 09:37:41;;;;;;;10.23;6.12;;;;;;;20.00;56.53;100320.27;1603102;85;27574;-79
2021/08/18 09:40:20;;;;;;;;;;;;;;;19.89;57.05;100321.75;1626165;85;25406;-79
2021/08/18 09:42:48;;;;;;;11.10;6.40;;;;;;;19.88;57.60;100322.84;1673029;85;25713;-79
2021/08/18 09:45:23;;;;;;;11.03;6.72;;;;;;;19.95;57.10;100313.41;1645134;85;25864;-79
2021/08/18 09:48:07;;;;;;;10.50;7.05;;;;;;;19.92;57.18;100317.17;1627636;85;25894;-79
2021/08/18 09:50:55;;;;;;;9.53;5.53;;;;;;;19.86;57.50;100325.00;1620746;85;27640;-79
2021/08/18 09:53:32;;;;;;;10.68;6.33;;;;;;;19.95;57.22;100319.41;1673922;85;26132;-79
2021/08/18 09:56:09;;;;;;;10.08;6.17;;;;;;;20.07;57.73;100314.63;1647642;85;26587;-80
2021/08/18 09:58:49;;;;;;;10.30;6.50;;;;;;;20.18;57.81;100310.12;1626446;84;25770;-79
2021/08/18 10:01:19;;;;;;;8.73;5.80;;;;;;;20.30;57.98;100311.64;1623765;85;25856;-79
2021/08/18 10:03:48;;;;;;;8.58;5.83;;;;;;;20.36;56.85;100312.52;1672260;85;27475;-79
2021/08/18 10:06:17;;;;;;;9.43;5.83;;;;;;;20.31;56.56;100312.47;1638291;85;25836;-80
2021/08/18 10:08:46;;;;;;;12.43;6.12;;;;;;;20.27;55.87;100312.70;1648089;85;26031;-79
2021/08/18 10:11:16;;;;;;;8.65;5.72;;;;;;;20.25;56.84;100303.98;1675401;85;26401;-79
2021/08/18 10:13:44;;;;;;;9.05;6.20;;;;;;;20.26;56.59;100306.96;1673706;85;43441;-79
2021/08/18 10:16:13;;;;;;;9.63;6.28;;;;;;;20.25;56.86;100302.62;1672818;85;27518;-79
2021/08/18 10:18:44;;;;;;;10.40;5.95;;;;;;;20.35;57.37;100295.38;1619703;85;25911;-79
2021/08/18 10:21:20;;;;;;;;;;;;;;;20.60;57.48;100298.84;1646789;85;25794;-79
2021/08/18 10:23:58;;;;;;;9.23;5.58;;;;;;;20.65;55.87;100289.38;1667243;85;25933;-79
2021/08/18 10:26:39;;;;;;;9.73;6.35;;;;;;;20.49;55.92;100304.74;1655920;84;26695;-79
2021/08/18 10:29:32;;;;;;;7.87;5.50;;;;;;;20.44;56.01;100293.84;1642926;85;28222;-79
2021/08/18 10:32:18;;;;;;;10.23;5.58;;;;;;;20.36;55.60;100301.08;1675172;85;25742;-79
2021/08/18 10:34:50;;;;;;;9.55;5.50;;;;;;;20.37;56.31;100293.22;1673403;84;25830;-80
2021/08/18 10:37:24;;;;;;;9.18;5.80;;;;;;;20.49;55.65;100299.83;1642460;84;25860;-79
2021/08/18 10:39:54;;;;;;;10.23;5.67;;;;;;;20.58;55.18;100288.23;1623157;84;25922;-80
2021/08/18 10:42:43;;;;;;;11.53;5.80;;;;;;;20.59;55.30;100291.22;1621898;84;28348;-80
2021/08/18 10:45:36;;;;;;;7.37;5.40;;;;;;;20.56;55.70;100289.56;1667562;84;25869;-80
2021/08/18 10:48:03;;;;;;;7.65;5.12;;;;;;;20.63;55.88;100286.92;1647013;85;25886;-80
2021/08/18 10:50:41;;;;;;;7.17;5.10;;;;;;;20.62;54.64;100298.88;1622063;84;26627;-79
2021/08/18 10:53:30;;;;;;;9.65;4.95;;;;;;;20.50;54.35;100305.57;1643666;85;25777;-80
2021/08/18 10:55:57;;;;;;;8.58;5.05;;;;;;;20.43;54.55;100298.98;1673351;84;27601;-79
2021/08/18 10:58:30;;;;;;;7.70;4.78;;;;;;;20.43;54.85;100298.15;1618857;84;25905;-79
2021/08/18 11:00:57;;;;;;;8.83;5.37;;;;;;;20.51;55.32;100296.31;1624776;85;25679;-79
2021/08/18 11:03:34;;;;;;;8.70;5.12;;;;;;;20.63;55.66;100296.98;1623169;84;26429;-80
2021/08/18 11:05:58;;;;;;;10.10;5.30;;;;;;;20.75;55.44;100282.64;1672083;84;25827;-80
2021/08/18 11:08:28;;;;;;;7.35;5.08;;;;;;;20.83;55.00;100283.51;1644240;85;28220;-79
2021/08/18 11:11:00;;;;;;;9.83;5.37;;;;;;;20.87;54.89;100286.55;1620282;84;25899;-79
2021/08/18 11:13:41;;;;;;;7.25;4.58;;;;;;;20.91;54.04;100286.30;1653412;84;25839;-79
2021/08/18 11:16:17;;;;;;;;;;;;;;;20.96;54.40;100281.70;1676924;84;26531;-79
2021/08/18 11:18:51;;;;;;;9.98;5.58;;;;;;;20.98;54.18;100275.45;1629173;84;25880;-79
2021/08/18 11:21:23;;;;;;;8.63;4.25;;;;;;;20.87;53.47;100277.02;1640815;84;27530;-79
2021/08/18 11:23:58;;;;;;;7.35;4.08;;;;;;;20.74;53.07;100279.66;1645852;85;26589;-79
2021/08/18 11:26:29;;;;;;;7.70;4.03;;;;;;;20.66;53.35;100270.05;1670512;84;25993;-79
2021/08/18 11:29:12;;;;;;;8.05;3.83;;;;;;;20.70;53.71;100279.33;1624799;85;25814;-79